LEZGLEVC

Guest
Details From LEZG - Zaragoza Ab
To LEVC - Valencia
Flight Number -
Tags Generated
Created
Modified
Stats Distance 133 nm / 246 km
Max Altitude 0 ft / 0 m
Waypoints 2
Social Downloads 5
Likes 0
Share VATSIM

Download

Looking for another format? Having issues loading an existing format? Contact us
Advertisement - Login to hide

Notes

Generated

Route

LEZG LEVC

ID Type Via Altitude Latitude Longitude Leg Dist Tot Dist Heading (true) Name
O LEZG APT - 0 ft / 0 m 41.66906˚ -1.03983˚ - 0 nm - Zaragoza AB
O LEVC APT - 0 ft / 0 m 39.49655˚ -0.50070˚ 132 nm 132 nm 169° / 170° -

Altitude Profile

Advertisement - Login to hide

LEZG

Details ICAO LEZG (ZAZ)
Name Zaragoza AB
Region Spain
Timezone Europe/Madrid (UTC+1.0)
Stats Elevation 862 ft / 263 m (AMSL)
Location 41.667030° -1.043559°
Runways 2
Magnetic Variation 0.012° W

METAR

LEZG 120230Z 26008KT 9999 FEW060 05/00 Q1008

Decode

TAF

TAF LEZG 112300Z 1200/1224 27012KT 9999 SCT035 TX10/1212Z TN02/1206Z TEMPO 1202/1206 27004KT

Decode

Departure Runways

ID Width Length Bearing (true) Bearing (mag) Surface Threshold Offset Overrun Length
12L 148 ft / 45 m 9,934 ft / 3,028 m 120.12° 120.13° Asphalt 0 ft / 0 m 984 ft / 300 m
12R 148 ft / 45 m 12,181 ft / 3,713 m 120.10° 120.11° Asphalt 0 ft / 0 m 984 ft / 300 m
30L 148 ft / 45 m 12,181 ft / 3,713 m 300.12° 300.13° Asphalt 0 ft / 0 m 984 ft / 300 m
30R 148 ft / 45 m 9,934 ft / 3,028 m 300.14° 300.15° Asphalt 0 ft / 0 m 607 ft / 185 m

LEVC

Details ICAO LEVC (VLC)
Name Valencia
Region Spain
Timezone Europe/Madrid (UTC+1.0)
Stats Elevation 225 ft / 69 m (AMSL)
Location 39.488236° -0.483892°
Runways 2
Magnetic Variation 0.191° E

METAR

LEVC 120230Z VRB02KT CAVOK 07/03 Q1007 NOSIG

Decode

TAF

TAF LEVC 112300Z 1200/1224 VRB04KT 9999 FEW035 SCT050 TX14/1212Z TN03/1206Z TEMPO 1206/1214 27010KT

Decode

Destination Runways

ID Width Length Bearing (true) Bearing (mag) Surface Threshold Offset Overrun Length
12 148 ft / 45 m 10,555 ft / 3,217 m 116.25° 116.06° Asphalt 0 ft / 0 m 646 ft / 197 m
22 154 ft / 47 m 3,828 ft / 1,167 m 217.99° 217.80° Asphalt 0 ft / 0 m 0 ft / 0 m
30 148 ft / 45 m 10,555 ft / 3,217 m 296.27° 296.08° Asphalt 1,001 ft / 305 m 932 ft / 284 m
4 154 ft / 47 m 3,828 ft / 1,167 m 37.98° 37.79° Asphalt 0 ft / 0 m 0 ft / 0 m

Approach Navaids

Runway Type Ident Frequency Range Bearing (true) Bearing (mag) Slope Elevation
12 Localiser VLN 111.50 MHz 25 nm / 46 km 116.20° 116.01° - 256 ft / 78 m (AMSL)
12 Glidescope VLN 111.50 MHz 10 nm / 19 km 116.20° 116.01° 3.00° 256 ft / 78 m (AMSL)
12 DME VLN 111.50 MHz 25 nm / 46 km - - - 256 ft / 78 m (AMSL)
30 Localiser IVC 110.10 MHz 18 nm / 33 km 296.19° 296.00° - 225 ft / 69 m (AMSL)
30 Glidescope IVC 110.10 MHz 10 nm / 19 km 296.26° 296.07° 3.00° 225 ft / 69 m (AMSL)
30 DME IVC 110.10 MHz 18 nm / 33 km - - - 203 ft / 62 m (AMSL)

Popular Alternatives